sensor_id;sensor_type;location;lat;lon;timestamp;pressure;altitude;pressure_sealevel;temperature;humidity
77077;BME280;66003;52.286;104.306;2023-09-19T00:00:40;96852.88;;;15.26;45.79
77077;BME280;66003;52.286;104.306;2023-09-19T00:03:08;96858.91;;;15.50;45.61
77077;BME280;66003;52.286;104.306;2023-09-19T00:05:35;96854.75;;;15.58;45.16
77077;BME280;66003;52.286;104.306;2023-09-19T00:08:02;96850.94;;;15.59;45.67
77077;BME280;66003;52.286;104.306;2023-09-19T00:10:31;96857.16;;;15.73;45.85
77077;BME280;66003;52.286;104.306;2023-09-19T00:13:02;96839.88;;;16.02;45.29
77077;BME280;66003;52.286;104.306;2023-09-19T00:15:42;96848.47;;;16.53;44.96
77077;BME280;66003;52.286;104.306;2023-09-19T00:18:09;96847.09;;;17.45;44.76
77077;BME280;66003;52.286;104.306;2023-09-19T00:20:36;96842.19;;;19.04;42.78
77077;BME280;66003;52.286;104.306;2023-09-19T00:23:03;96851.13;;;20.44;38.96
77077;BME280;66003;52.286;104.306;2023-09-19T00:25:30;96849.09;;;22.95;32.28
77077;BME280;66003;52.286;104.306;2023-09-19T00:27:58;96838.88;;;25.35;28.84
77077;BME280;66003;52.286;104.306;2023-09-19T00:30:24;96850.78;;;26.60;26.62
77077;BME280;66003;52.286;104.306;2023-09-19T00:32:52;96839.16;;;28.11;25.54
77077;BME280;66003;52.286;104.306;2023-09-19T00:35:18;96841.81;;;29.14;23.14
77077;BME280;66003;52.286;104.306;2023-09-19T00:37:45;96827.03;;;29.93;24.43
77077;BME280;66003;52.286;104.306;2023-09-19T00:40:11;96839.19;;;30.91;21.68
77077;BME280;66003;52.286;104.306;2023-09-19T00:42:45;96849.72;;;31.25;21.93
77077;BME280;66003;52.286;104.306;2023-09-19T00:45:13;96842.28;;;31.04;20.50
77077;BME280;66003;52.286;104.306;2023-09-19T00:47:50;96846.72;;;30.73;21.41
77077;BME280;66003;52.286;104.306;2023-09-19T00:50:23;96842.78;;;30.45;22.95
77077;BME280;66003;52.286;104.306;2023-09-19T00:52:54;96848.50;;;29.20;23.69
77077;BME280;66003;52.286;104.306;2023-09-19T00:55:25;96825.75;;;28.54;24.05
77077;BME280;66003;52.286;104.306;2023-09-19T00:57:51;96834.25;;;28.34;23.58
77077;BME280;66003;52.286;104.306;2023-09-19T01:00:18;96818.63;;;28.42;24.15
77077;BME280;66003;52.286;104.306;2023-09-19T01:02:46;96815.63;;;29.69;23.50
77077;BME280;66003;52.286;104.306;2023-09-19T01:05:12;96822.28;;;30.78;23.15
77077;BME280;66003;52.286;104.306;2023-09-19T01:07:39;96813.31;;;32.47;20.18
77077;BME280;66003;52.286;104.306;2023-09-19T01:10:09;96820.41;;;34.08;19.14
77077;BME280;66003;52.286;104.306;2023-09-19T01:16:11;96826.06;;;36.50;16.51
77077;BME280;66003;52.286;104.306;2023-09-19T01:18:55;96820.13;;;37.22;16.82
77077;BME280;66003;52.286;104.306;2023-09-19T01:21:59;96816.44;;;38.52;15.32
77077;BME280;66003;52.286;104.306;2023-09-19T01:30:26;96824.59;;;39.99;14.06
77077;BME280;66003;52.286;104.306;2023-09-19T01:32:59;96815.81;;;40.37;13.87
77077;BME280;66003;52.286;104.306;2023-09-19T01:35:25;96823.00;;;40.66;13.47
77077;BME280;66003;52.286;104.306;2023-09-19T01:37:52;96822.25;;;41.02;14.09
77077;BME280;66003;52.286;104.306;2023-09-19T01:40:21;96818.13;;;41.48;13.41
77077;BME280;66003;52.286;104.306;2023-09-19T01:50:55;96807.63;;;42.57;12.55
77077;BME280;66003;52.286;104.306;2023-09-19T01:53:38;96804.88;;;42.72;11.92
77077;BME280;66003;52.286;104.306;2023-09-19T01:56:08;96813.66;;;42.65;12.50
77077;BME280;66003;52.286;104.306;2023-09-19T01:58:46;96809.19;;;42.82;12.27
77077;BME280;66003;52.286;104.306;2023-09-19T02:01:19;96804.34;;;42.82;11.86
77077;BME280;66003;52.286;104.306;2023-09-19T02:03:47;96805.97;;;42.89;12.51
77077;BME280;66003;52.286;104.306;2023-09-19T02:06:17;96804.88;;;42.72;12.46
77077;BME280;66003;52.286;104.306;2023-09-19T02:08:45;96815.75;;;42.79;12.01
77077;BME280;66003;52.286;104.306;2023-09-19T02:11:13;96808.75;;;42.50;12.32
77077;BME280;66003;52.286;104.306;2023-09-19T02:13:41;96800.16;;;42.78;12.35
77077;BME280;66003;52.286;104.306;2023-09-19T02:16:09;96804.44;;;42.88;12.49
77077;BME280;66003;52.286;104.306;2023-09-19T02:18:37;96804.75;;;42.66;12.45
77077;BME280;66003;52.286;104.306;2023-09-19T02:21:03;96807.06;;;42.68;12.21
77077;BME280;66003;52.286;104.306;2023-09-19T02:23:30;96801.56;;;42.73;12.39
77077;BME280;66003;52.286;104.306;2023-09-19T02:25:56;96800.91;;;42.78;11.97
77077;BME280;66003;52.286;104.306;2023-09-19T02:28:31;96798.94;;;42.70;12.92
77077;BME280;66003;52.286;104.306;2023-09-19T02:30:59;96802.75;;;42.43;13.10
77077;BME280;66003;52.286;104.306;2023-09-19T02:33:25;96790.69;;;40.06;14.39
77077;BME280;66003;52.286;104.306;2023-09-19T02:35:55;96800.41;;;37.30;16.70
77077;BME280;66003;52.286;104.306;2023-09-19T02:38:24;96795.28;;;34.61;19.27
77077;BME280;66003;52.286;104.306;2023-09-19T02:40:50;96801.53;;;33.72;20.16
77077;BME280;66003;52.286;104.306;2023-09-19T02:43:17;96801.00;;;34.74;19.73
77077;BME280;66003;52.286;104.306;2023-09-19T02:45:43;96782.38;;;36.47;18.19
77077;BME280;66003;52.286;104.306;2023-09-19T02:48:09;96784.41;;;37.72;17.43
77077;BME280;66003;52.286;104.306;2023-09-19T02:50:37;96782.47;;;38.07;17.00
77077;BME280;66003;52.286;104.306;2023-09-19T02:53:05;96782.28;;;36.51;18.19
77077;BME280;66003;52.286;104.306;2023-09-19T02:55:32;96773.16;;;34.34;20.04
77077;BME280;66003;52.286;104.306;2023-09-19T02:57:58;96784.25;;;33.04;21.55
77077;BME280;66003;52.286;104.306;2023-09-19T03:00:24;96773.50;;;31.97;23.38
77077;BME280;66003;52.286;104.306;2023-09-19T03:02:54;96757.50;;;30.97;24.10
77077;BME280;66003;52.286;104.306;2023-09-19T03:05:21;96760.91;;;30.17;25.52
77077;BME280;66003;52.286;104.306;2023-09-19T03:07:49;96762.47;;;29.69;25.67
77077;BME280;66003;52.286;104.306;2023-09-19T03:10:20;96760.72;;;28.93;26.69
77077;BME280;66003;52.286;104.306;2023-09-19T03:12:50;96758.19;;;28.60;27.49
77077;BME280;66003;52.286;104.306;2023-09-19T03:15:16;96762.22;;;28.11;27.50
77077;BME280;66003;52.286;104.306;2023-09-19T03:17:45;96749.34;;;27.67;28.13
77077;BME280;66003;52.286;104.306;2023-09-19T03:20:11;96754.94;;;27.38;28.43
77077;BME280;66003;52.286;104.306;2023-09-19T03:22:39;96750.38;;;27.12;29.25
77077;BME280;66003;52.286;104.306;2023-09-19T03:25:07;96748.25;;;26.98;29.77
77077;BME280;66003;52.286;104.306;2023-09-19T03:27:37;96741.72;;;26.80;29.25
77077;BME280;66003;52.286;104.306;2023-09-19T03:30:04;96750.44;;;26.55;29.51
77077;BME280;66003;52.286;104.306;2023-09-19T03:32:35;96754.97;;;26.41;30.39
77077;BME280;66003;52.286;104.306;2023-09-19T03:35:02;96753.72;;;26.35;29.71
77077;BME280;66003;52.286;104.306;2023-09-19T03:37:31;96742.13;;;25.92;30.28
77077;BME280;66003;52.286;104.306;2023-09-19T03:39:58;96741.63;;;25.86;30.16
77077;BME280;66003;52.286;104.306;2023-09-19T03:42:25;96721.22;;;25.58;31.14
77077;BME280;66003;52.286;104.306;2023-09-19T03:44:52;96731.00;;;25.59;30.94
77077;BME280;66003;52.286;104.306;2023-09-19T03:47:20;96725.75;;;25.73;30.64
77077;BME280;66003;52.286;104.306;2023-09-19T03:49:46;96731.03;;;25.85;31.14
77077;BME280;66003;52.286;104.306;2023-09-19T03:52:13;96726.13;;;25.94;30.83
77077;BME280;66003;52.286;104.306;2023-09-19T03:54:40;96729.00;;;26.05;30.55
77077;BME280;66003;52.286;104.306;2023-09-19T03:57:07;96722.53;;;26.20;30.60
77077;BME280;66003;52.286;104.306;2023-09-19T03:59:33;96726.22;;;26.28;30.15
77077;BME280;66003;52.286;104.306;2023-09-19T04:02:01;96712.00;;;26.22;30.05
77077;BME280;66003;52.286;104.306;2023-09-19T04:04:27;96705.66;;;26.14;30.34
77077;BME280;66003;52.286;104.306;2023-09-19T04:06:55;96714.44;;;26.27;29.73
77077;BME280;66003;52.286;104.306;2023-09-19T04:09:21;96722.19;;;26.21;29.81
77077;BME280;66003;52.286;104.306;2023-09-19T04:11:47;96715.03;;;26.13;29.06
77077;BME280;66003;52.286;104.306;2023-09-19T04:14:15;96695.41;;;26.08;29.98
77077;BME280;66003;52.286;104.306;2023-09-19T04:16:41;96705.00;;;26.88;27.91
77077;BME280;66003;52.286;104.306;2023-09-19T04:19:07;96703.13;;;26.29;30.30
77077;BME280;66003;52.286;104.306;2023-09-19T04:21:33;96699.16;;;26.26;30.73
77077;BME280;66003;52.286;104.306;2023-09-19T04:23:59;96706.00;;;27.06;28.38
77077;BME280;66003;52.286;104.306;2023-09-19T04:26:25;96702.41;;;26.65;30.04
77077;BME280;66003;52.286;104.306;2023-09-19T04:28:52;96696.88;;;26.61;29.80
77077;BME280;66003;52.286;104.306;2023-09-19T04:31:18;96694.84;;;27.29;28.95
77077;BME280;66003;52.286;104.306;2023-09-19T04:33:45;96684.44;;;26.71;30.26
77077;BME280;66003;52.286;104.306;2023-09-19T04:36:11;96693.50;;;26.75;29.98
77077;BME280;66003;52.286;104.306;2023-09-19T04:38:39;96690.41;;;26.80;30.02
77077;BME280;66003;52.286;104.306;2023-09-19T04:41:06;96681.78;;;26.78;28.69
77077;BME280;66003;52.286;104.306;2023-09-19T04:43:32;96685.88;;;26.58;27.90
77077;BME280;66003;52.286;104.306;2023-09-19T04:45:58;96689.78;;;27.31;28.02
77077;BME280;66003;52.286;104.306;2023-09-19T04:48:26;96678.16;;;26.71;27.86
77077;BME280;66003;52.286;104.306;2023-09-19T04:50:52;96690.78;;;26.79;27.48
77077;BME280;66003;52.286;104.306;2023-09-19T04:53:19;96678.28;;;26.81;25.68
77077;BME280;66003;52.286;104.306;2023-09-19T04:55:53;96670.69;;;26.68;26.18
77077;BME280;66003;52.286;104.306;2023-09-19T04:58:22;96671.47;;;26.68;26.92
77077;BME280;66003;52.286;104.306;2023-09-19T05:00:48;96678.53;;;26.66;26.55
77077;BME280;66003;52.286;104.306;2023-09-19T05:03:17;96666.34;;;26.63;26.57
77077;BME280;66003;52.286;104.306;2023-09-19T05:05:43;96673.97;;;26.80;26.90
77077;BME280;66003;52.286;104.306;2023-09-19T05:08:09;96660.19;;;26.73;26.76
77077;BME280;66003;52.286;104.306;2023-09-19T05:10:35;96677.09;;;27.60;26.50
77077;BME280;66003;52.286;104.306;2023-09-19T05:13:05;96668.09;;;27.19;26.35
77077;BME280;66003;52.286;104.306;2023-09-19T05:15:33;96668.47;;;27.14;26.40
77077;BME280;66003;52.286;104.306;2023-09-19T05:17:59;96664.84;;;27.06;25.87
77077;BME280;66003;52.286;104.306;2023-09-19T05:20:25;96668.94;;;27.74;25.83
77077;BME280;66003;52.286;104.306;2023-09-19T05:23:06;96656.13;;;27.38;26.29
77077;BME280;66003;52.286;104.306;2023-09-19T05:25:38;96657.56;;;27.24;26.47
77077;BME280;66003;52.286;104.306;2023-09-19T05:28:06;96648.19;;;27.29;26.39
77077;BME280;66003;52.286;104.306;2023-09-19T05:30:33;96647.56;;;27.46;26.35
77077;BME280;66003;52.286;104.306;2023-09-19T05:33:02;96643.75;;;27.58;26.30
77077;BME280;66003;52.286;104.306;2023-09-19T05:35:30;96639.09;;;27.69;26.16
77077;BME280;66003;52.286;104.306;2023-09-19T05:37:57;96609.81;;;27.36;26.39
77077;BME280;66003;52.286;104.306;2023-09-19T05:40:24;96638.53;;;27.46;26.02
77077;BME280;66003;52.286;104.306;2023-09-19T05:42:51;96627.69;;;27.16;26.13
77077;BME280;66003;52.286;104.306;2023-09-19T05:45:17;96634.84;;;27.27;26.30
77077;BME280;66003;52.286;104.306;2023-09-19T05:47:53;96624.34;;;27.40;26.09
77077;BME280;66003;52.286;104.306;2023-09-19T05:50:30;96625.72;;;27.60;25.90
77077;BME280;66003;52.286;104.306;2023-09-19T05:52:58;96617.44;;;27.57;25.80
77077;BME280;66003;52.286;104.306;2023-09-19T05:55:26;96628.59;;;27.82;25.99
77077;BME280;66003;52.286;104.306;2023-09-19T05:57:54;96612.44;;;27.70;25.97
77077;BME280;66003;52.286;104.306;2023-09-19T06:00:22;96614.78;;;27.75;25.47
77077;BME280;66003;52.286;104.306;2023-09-19T06:02:52;96621.13;;;27.86;26.22
77077;BME280;66003;52.286;104.306;2023-09-19T06:05:19;96609.38;;;27.82;25.28
77077;BME280;66003;52.286;104.306;2023-09-19T06:07:46;96608.59;;;27.88;25.00
77077;BME280;66003;52.286;104.306;2023-09-19T06:10:13;96605.06;;;27.88;25.33
77077;BME280;66003;52.286;104.306;2023-09-19T06:12:44;96607.03;;;27.91;24.89
77077;BME280;66003;52.286;104.306;2023-09-19T06:15:12;96601.19;;;27.96;24.79
77077;BME280;66003;52.286;104.306;2023-09-19T06:17:43;96592.16;;;27.95;24.42
77077;BME280;66003;52.286;104.306;2023-09-19T06:20:12;96590.53;;;27.84;24.52
77077;BME280;66003;52.286;104.306;2023-09-19T06:22:42;96588.16;;;27.86;25.25
77077;BME280;66003;52.286;104.306;2023-09-19T06:25:10;96589.00;;;27.93;25.12
77077;BME280;66003;52.286;104.306;2023-09-19T06:27:39;96583.97;;;28.06;25.15
77077;BME280;66003;52.286;104.306;2023-09-19T06:30:09;96581.22;;;28.06;24.22
77077;BME280;66003;52.286;104.306;2023-09-19T06:32:38;96567.47;;;28.06;23.90
77077;BME280;66003;52.286;104.306;2023-09-19T06:35:05;96582.78;;;28.07;23.96
77077;BME280;66003;52.286;104.306;2023-09-19T06:37:34;96576.53;;;28.14;23.55
77077;BME280;66003;52.286;104.306;2023-09-19T06:40:01;96573.38;;;28.15;23.60
77077;BME280;66003;52.286;104.306;2023-09-19T06:42:29;96560.41;;;28.09;23.04
77077;BME280;66003;52.286;104.306;2023-09-19T06:44:55;96560.03;;;28.14;23.79
77077;BME280;66003;52.286;104.306;2023-09-19T06:47:22;96567.91;;;28.15;23.27
77077;BME280;66003;52.286;104.306;2023-09-19T06:49:48;96563.19;;;28.16;22.77
77077;BME280;66003;52.286;104.306;2023-09-19T06:52:14;96548.63;;;28.12;22.78
77077;BME280;66003;52.286;104.306;2023-09-19T06:54:41;96554.13;;;28.04;22.09
77077;BME280;66003;52.286;104.306;2023-09-19T06:57:07;96551.78;;;28.07;22.31
77077;BME280;66003;52.286;104.306;2023-09-19T06:59:35;96541.97;;;28.06;21.23
77077;BME280;66003;52.286;104.306;2023-09-19T07:02:03;96547.44;;;28.02;22.02
77077;BME280;66003;52.286;104.306;2023-09-19T07:04:32;96546.28;;;28.14;22.52
77077;BME280;66003;52.286;104.306;2023-09-19T07:06:59;96547.44;;;28.09;22.10
77077;BME280;66003;52.286;104.306;2023-09-19T07:09:25;96548.28;;;28.17;22.49
77077;BME280;66003;52.286;104.306;2023-09-19T07:11:54;96535.75;;;28.19;22.58
77077;BME280;66003;52.286;104.306;2023-09-19T07:14:20;96525.94;;;28.25;22.35
77077;BME280;66003;52.286;104.306;2023-09-19T07:16:47;96523.97;;;28.22;22.47
77077;BME280;66003;52.286;104.306;2023-09-19T07:19:15;96526.34;;;28.31;22.57
77077;BME280;66003;52.286;104.306;2023-09-19T07:21:41;96527.94;;;28.39;22.91
77077;BME280;66003;52.286;104.306;2023-09-19T07:24:08;96520.88;;;28.42;21.63
77077;BME280;66003;52.286;104.306;2023-09-19T07:26:35;96533.44;;;28.46;22.30
77077;BME280;66003;52.286;104.306;2023-09-19T07:29:01;96522.81;;;28.37;22.06
77077;BME280;66003;52.286;104.306;2023-09-19T07:31:29;96523.25;;;28.43;22.09
77077;BME280;66003;52.286;104.306;2023-09-19T07:33:57;96518.91;;;28.46;22.18
77077;BME280;66003;52.286;104.306;2023-09-19T07:36:23;96502.78;;;28.48;22.17
77077;BME280;66003;52.286;104.306;2023-09-19T07:38:50;96516.94;;;28.43;21.78
77077;BME280;66003;52.286;104.306;2023-09-19T07:41:17;96506.34;;;28.52;21.18
77077;BME280;66003;52.286;104.306;2023-09-19T07:43:43;96503.59;;;28.52;21.74
77077;BME280;66003;52.286;104.306;2023-09-19T07:46:10;96511.44;;;28.50;22.02
77077;BME280;66003;52.286;104.306;2023-09-19T07:48:38;96510.66;;;28.60;21.45
77077;BME280;66003;52.286;104.306;2023-09-19T07:51:06;96508.69;;;28.57;21.80
77077;BME280;66003;52.286;104.306;2023-09-19T07:53:33;96492.22;;;28.53;21.49
77077;BME280;66003;52.286;104.306;2023-09-19T07:56:04;96498.06;;;28.45;21.85
77077;BME280;66003;52.286;104.306;2023-09-19T07:58:31;96496.13;;;28.49;21.66
77077;BME280;66003;52.286;104.306;2023-09-19T08:01:06;96487.47;;;28.57;22.05
77077;BME280;66003;52.286;104.306;2023-09-19T08:03:33;96481.22;;;28.43;21.63
77077;BME280;66003;52.286;104.306;2023-09-19T08:06:00;96493.78;;;28.51;21.41
77077;BME280;66003;52.286;104.306;2023-09-19T08:08:28;96484.34;;;28.59;20.67
77077;BME280;66003;52.286;104.306;2023-09-19T08:10:55;96493.38;;;28.63;20.76
77077;BME280;66003;52.286;104.306;2023-09-19T08:13:25;96474.91;;;28.56;20.80
77077;BME280;66003;52.286;104.306;2023-09-19T08:15:52;96488.66;;;28.70;20.98
77077;BME280;66003;52.286;104.306;2023-09-19T08:18:19;96485.53;;;28.65;20.13
77077;BME280;66003;52.286;104.306;2023-09-19T08:20:52;96484.34;;;28.77;20.85
77077;BME280;66003;52.286;104.306;2023-09-19T08:23:19;96479.25;;;28.64;19.73
77077;BME280;66003;52.286;104.306;2023-09-19T08:25:47;96472.16;;;28.60;19.77
77077;BME280;66003;52.286;104.306;2023-09-19T08:28:13;96476.47;;;28.57;20.10
77077;BME280;66003;52.286;104.306;2023-09-19T08:30:47;96474.94;;;28.67;19.53
77077;BME280;66003;52.286;104.306;2023-09-19T08:33:13;96472.16;;;28.63;19.52
77077;BME280;66003;52.286;104.306;2023-09-19T08:35:41;96474.53;;;28.54;19.14
77077;BME280;66003;52.286;104.306;2023-09-19T08:38:10;96469.41;;;28.49;19.69
77077;BME280;66003;52.286;104.306;2023-09-19T08:40:39;96472.97;;;28.43;19.86
77077;BME280;66003;52.286;104.306;2023-09-19T08:43:08;96472.56;;;28.41;19.21
77077;BME280;66003;52.286;104.306;2023-09-19T08:45:34;96450.97;;;28.32;19.70
77077;BME280;66003;52.286;104.306;2023-09-19T08:48:26;96466.66;;;28.60;18.75
77077;BME280;66003;52.286;104.306;2023-09-19T08:51:02;96454.91;;;28.56;19.86
77077;BME280;66003;52.286;104.306;2023-09-19T08:53:47;96459.59;;;28.62;19.75
77077;BME280;66003;52.286;104.306;2023-09-19T08:56:18;96453.28;;;28.44;19.23
77077;BME280;66003;52.286;104.306;2023-09-19T08:59:05;96464.69;;;28.74;19.79
77077;BME280;66003;52.286;104.306;2023-09-19T09:01:33;96455.69;;;28.42;18.65
77077;BME280;66003;52.286;104.306;2023-09-19T09:04:01;96452.50;;;28.36;18.57
77077;BME280;66003;52.286;104.306;2023-09-19T09:06:29;96455.25;;;28.36;18.37
77077;BME280;66003;52.286;104.306;2023-09-19T09:08:56;96456.03;;;28.26;18.71
77077;BME280;66003;52.286;104.306;2023-09-19T09:11:22;96454.09;;;28.37;18.36
77077;BME280;66003;52.286;104.306;2023-09-19T09:13:53;96454.09;;;28.27;18.14
77077;BME280;66003;52.286;104.306;2023-09-19T09:16:19;96450.94;;;28.25;17.83
77077;BME280;66003;52.286;104.306;2023-09-19T09:18:46;96466.25;;;28.29;17.98
77077;BME280;66003;52.286;104.306;2023-09-19T09:21:18;96459.97;;;28.29;19.20
77077;BME280;66003;52.286;104.306;2023-09-19T09:23:48;96445.44;;;28.25;18.68
77077;BME280;66003;52.286;104.306;2023-09-19T09:26:15;96437.53;;;28.02;19.52
77077;BME280;66003;52.286;104.306;2023-09-19T09:28:46;96458.78;;;28.23;20.07
77077;BME280;66003;52.286;104.306;2023-09-19T09:31:24;96450.13;;;28.21;20.92
77077;BME280;66003;52.286;104.306;2023-09-19T09:33:55;96462.25;;;28.09;21.70
77077;BME280;66003;52.286;104.306;2023-09-19T09:36:35;96448.13;;;28.11;21.39
77077;BME280;66003;52.286;104.306;2023-09-19T09:39:02;96444.53;;;27.85;22.00
77077;BME280;66003;52.286;104.306;2023-09-19T09:41:42;96436.31;;;27.82;22.33
77077;BME280;66003;52.286;104.306;2023-09-19T09:44:16;96442.97;;;27.81;21.56
77077;BME280;66003;52.286;104.306;2023-09-19T09:46:48;96446.06;;;27.68;22.19
77077;BME280;66003;52.286;104.306;2023-09-19T09:49:24;96452.75;;;27.75;22.50
77077;BME280;66003;52.286;104.306;2023-09-19T09:52:06;96441.38;;;27.69;22.57
77077;BME280;66003;52.286;104.306;2023-09-19T09:54:35;96446.75;;;27.48;22.71
77077;BME280;66003;52.286;104.306;2023-09-19T09:57:06;96450.66;;;27.47;23.27
77077;BME280;66003;52.286;104.306;2023-09-19T09:59:54;96448.28;;;27.42;23.26
77077;BME280;66003;52.286;104.306;2023-09-19T10:02:29;96453.75;;;27.38;22.80
77077;BME280;66003;52.286;104.306;2023-09-19T10:04:59;96456.47;;;27.31;23.22
77077;BME280;66003;52.286;104.306;2023-09-19T10:07:51;96440.75;;;27.21;23.66
77077;BME280;66003;52.286;104.306;2023-09-19T10:10:49;96450.63;;;27.40;23.55
77077;BME280;66003;52.286;104.306;2023-09-19T10:13:19;96457.38;;;26.87;24.42
77077;BME280;66003;52.286;104.306;2023-09-19T10:15:50;96448.28;;;26.76;24.56
77077;BME280;66003;52.286;104.306;2023-09-19T10:18:25;96452.94;;;26.72;24.21
77077;BME280;66003;52.286;104.306;2023-09-19T10:20:54;96443.41;;;26.52;24.66
77077;BME280;66003;52.286;104.306;2023-09-19T10:23:21;96442.91;;;26.39;24.98
77077;BME280;66003;52.286;104.306;2023-09-19T10:25:50;96432.69;;;26.36;24.96
77077;BME280;66003;52.286;104.306;2023-09-19T10:28:17;96444.06;;;26.38;25.22
77077;BME280;66003;52.286;104.306;2023-09-19T10:30:49;96455.41;;;26.37;25.50
77077;BME280;66003;52.286;104.306;2023-09-19T10:33:17;96455.72;;;26.32;25.35
77077;BME280;66003;52.286;104.306;2023-09-19T10:35:50;96443.47;;;26.18;25.86
77077;BME280;66003;52.286;104.306;2023-09-19T10:38:25;96454.75;;;26.13;26.05
77077;BME280;66003;52.286;104.306;2023-09-19T10:40:56;96460.56;;;26.08;26.37
77077;BME280;66003;52.286;104.306;2023-09-19T10:43:30;96455.78;;;25.98;26.52
77077;BME280;66003;52.286;104.306;2023-09-19T10:46:02;96449.75;;;25.82;26.76
77077;BME280;66003;52.286;104.306;2023-09-19T10:48:31;96458.13;;;25.63;27.37
77077;BME280;66003;52.286;104.306;2023-09-19T10:53:43;96467.88;;;25.60;27.58
77077;BME280;66003;52.286;104.306;2023-09-19T10:56:19;96460.53;;;25.38;28.18
77077;BME280;66003;52.286;104.306;2023-09-19T10:58:48;96471.63;;;25.18;28.27
77077;BME280;66003;52.286;104.306;2023-09-19T11:01:15;96467.94;;;25.07;28.24
77077;BME280;66003;52.286;104.306;2023-09-19T11:03:43;96459.88;;;24.92;28.93
77077;BME280;66003;52.286;104.306;2023-09-19T11:06:15;96474.28;;;24.89;29.28
77077;BME280;66003;52.286;104.306;2023-09-19T11:08:58;96467.28;;;24.91;29.60
77077;BME280;66003;52.286;104.306;2023-09-19T11:11:41;96477.53;;;24.71;29.37
77077;BME280;66003;52.286;104.306;2023-09-19T11:30:46;96485.28;;;24.01;29.12
77077;BME280;66003;52.286;104.306;2023-09-19T11:33:27;96502.56;;;24.08;29.07
77077;BME280;66003;52.286;104.306;2023-09-19T11:36:07;96511.06;;;24.03;28.75
77077;BME280;66003;52.286;104.306;2023-09-19T11:49:18;96504.84;;;23.49;29.86
77077;BME280;66003;52.286;104.306;2023-09-19T11:51:52;96513.66;;;23.96;28.00
77077;BME280;66003;52.286;104.306;2023-09-19T11:54:18;96509.38;;;23.41;30.02
77077;BME280;66003;52.286;104.306;2023-09-19T11:56:52;96503.84;;;23.37;30.66
77077;BME280;66003;52.286;104.306;2023-09-19T11:59:40;96516.25;;;23.51;30.78
77077;BME280;66003;52.286;104.306;2023-09-19T12:02:10;96516.28;;;23.35;30.75
77077;BME280;66003;52.286;104.306;2023-09-19T12:04:43;96526.22;;;23.27;31.26
77077;BME280;66003;52.286;104.306;2023-09-19T12:07:13;96514.66;;;23.15;31.23
77077;BME280;66003;52.286;104.306;2023-09-19T12:12:47;96532.09;;;22.94;32.65
77077;BME280;66003;52.286;104.306;2023-09-19T12:15:25;96536.06;;;22.81;33.34
77077;BME280;66003;52.286;104.306;2023-09-19T12:18:00;96542.28;;;22.66;34.01
77077;BME280;66003;52.286;104.306;2023-09-19T12:20:45;96542.31;;;22.82;32.32
77077;BME280;66003;52.286;104.306;2023-09-19T12:23:16;96547.06;;;22.53;34.43
77077;BME280;66003;52.286;104.306;2023-09-19T12:25:43;96551.78;;;22.56;33.77
77077;BME280;66003;52.286;104.306;2023-09-19T12:28:14;96540.50;;;22.42;34.09
77077;BME280;66003;52.286;104.306;2023-09-19T12:30:42;96549.19;;;22.32;34.57
77077;BME280;66003;52.286;104.306;2023-09-19T12:33:18;96554.91;;;22.43;34.49
77077;BME280;66003;52.286;104.306;2023-09-19T12:35:47;96565.53;;;22.32;34.47
77077;BME280;66003;52.286;104.306;2023-09-19T12:38:28;96563.47;;;22.41;33.14
77077;BME280;66003;52.286;104.306;2023-09-19T12:40:56;96554.09;;;22.11;34.62
77077;BME280;66003;52.286;104.306;2023-09-19T12:43:28;96547.78;;;21.94;35.40
77077;BME280;66003;52.286;104.306;2023-09-19T12:45:58;96560.28;;;21.83;36.10
77077;BME280;66003;52.286;104.306;2023-09-19T12:48:26;96558.50;;;21.75;36.46
77077;BME280;66003;52.286;104.306;2023-09-19T12:51:07;96573.81;;;21.80;36.20
77077;BME280;66003;52.286;104.306;2023-09-19T12:53:41;96558.41;;;21.72;35.74
77077;BME280;66003;52.286;104.306;2023-09-19T12:56:09;96565.94;;;22.03;33.85
77077;BME280;66003;52.286;104.306;2023-09-19T12:58:59;96552.88;;;21.68;34.42
77077;BME280;66003;52.286;104.306;2023-09-19T13:01:29;96575.03;;;21.42;36.48
77077;BME280;66003;52.286;104.306;2023-09-19T13:04:21;96581.72;;;21.45;34.79
77077;BME280;66003;52.286;104.306;2023-09-19T13:06:56;96570.75;;;21.29;36.22
77077;BME280;66003;52.286;104.306;2023-09-19T13:09:27;96559.75;;;21.25;36.34
77077;BME280;66003;52.286;104.306;2023-09-19T13:12:05;96575.16;;;21.09;36.98
77077;BME280;66003;52.286;104.306;2023-09-19T13:15:10;96565.63;;;21.15;37.05
77077;BME280;66003;52.286;104.306;2023-09-19T13:17:46;96576.75;;;21.10;37.22
77077;BME280;66003;52.286;104.306;2023-09-19T13:20:24;96581.94;;;21.03;37.63
77077;BME280;66003;52.286;104.306;2023-09-19T13:22:55;96581.72;;;20.84;37.39
77077;BME280;66003;52.286;104.306;2023-09-19T13:25:27;96566.75;;;20.78;37.66
77077;BME280;66003;52.286;104.306;2023-09-19T13:27:57;96575.94;;;20.73;38.34
77077;BME280;66003;52.286;104.306;2023-09-19T13:30:25;96570.69;;;20.56;38.81
77077;BME280;66003;52.286;104.306;2023-09-19T13:32:52;96573.28;;;20.40;39.48
77077;BME280;66003;52.286;104.306;2023-09-19T13:35:20;96584.66;;;20.34;39.44
77077;BME280;66003;52.286;104.306;2023-09-19T13:37:47;96573.53;;;20.14;39.41
77077;BME280;66003;52.286;104.306;2023-09-19T13:40:16;96585.91;;;20.03;39.29
77077;BME280;66003;52.286;104.306;2023-09-19T13:42:43;96586.78;;;19.95;39.02
77077;BME280;66003;52.286;104.306;2023-09-19T13:45:10;96577.63;;;19.67;38.62